createdAt,value
2019-04-22T00:01:38.609Z,43.50
2019-04-22T00:04:13.587Z,43.50
2019-04-22T00:07:07.059Z,43.50
2019-04-22T00:09:44.470Z,43.50
2019-04-22T00:12:14.644Z,43.60
2019-04-22T00:14:36.869Z,43.60
2019-04-22T00:17:31.943Z,43.70
2019-04-22T00:19:43.806Z,43.80
2019-04-22T00:22:22.131Z,43.80
2019-04-22T00:24:46.089Z,43.90
2019-04-22T00:27:20.704Z,44.10
2019-04-22T00:29:59.363Z,44.20
2019-04-22T00:32:19.390Z,44.30
2019-04-22T00:35:00.316Z,44.30
2019-04-22T00:37:34.691Z,44.30
2019-04-22T00:40:07.150Z,44.40
2019-04-22T00:42:36.303Z,44.50
2019-04-22T00:45:05.878Z,44.60
2019-04-22T00:47:39.952Z,44.80
2019-04-22T00:52:33.943Z,45.10
2019-04-22T00:57:35.513Z,45.40
2019-04-22T01:00:05.562Z,45.50
2019-04-22T01:02:42.902Z,45.70
2019-04-22T01:05:09.776Z,45.80
2019-04-22T01:07:35.612Z,46.00
2019-04-22T01:10:12.943Z,46.00
2019-04-22T01:12:48.108Z,46.20
2019-04-22T01:15:20.873Z,46.10
2019-04-22T01:17:45.041Z,46.10
2019-04-22T01:22:39.379Z,46.20
2019-04-22T01:25:15.949Z,46.40
2019-04-22T01:27:41.503Z,46.50
2019-04-22T01:30:07.342Z,46.70
2019-04-22T01:32:32.822Z,46.80
2019-04-22T01:35:13.116Z,47.00
2019-04-22T01:37:49.539Z,47.00
2019-04-22T01:40:29.361Z,47.10
2019-04-22T01:45:33.336Z,47.30
2019-04-22T01:48:00.531Z,47.50
2019-04-22T01:50:34.705Z,47.60
2019-04-22T01:53:16.506Z,47.80
2019-04-22T01:55:34.763Z,47.80
2019-04-22T01:57:54.094Z,48.10
2019-04-22T02:00:36.019Z,48.20
2019-04-22T02:03:07.251Z,48.30
2019-04-22T02:05:40.827Z,48.30
2019-04-22T02:08:18.051Z,48.40
2019-04-22T02:10:44.155Z,48.50
2019-04-22T02:13:11.499Z,48.60
2019-04-22T02:15:39.647Z,48.60
2019-04-22T02:18:19.755Z,48.70
2019-04-22T02:20:41.054Z,48.70
2019-04-22T02:23:45.167Z,48.80
2019-04-22T02:26:16.384Z,48.80
2019-04-22T02:34:09.611Z,49.00
2019-04-22T02:41:26.604Z,49.30
2019-04-22T02:43:56.914Z,49.40
2019-04-22T02:51:16.878Z,49.40
2019-04-22T02:54:18.727Z,49.30
2019-04-22T02:58:55.989Z,49.10
2019-04-22T03:01:25.020Z,49.00
2019-04-22T03:06:24.190Z,48.90
2019-04-22T03:08:51.722Z,48.90
2019-04-22T03:11:22.351Z,48.90
2019-04-22T03:21:36.724Z,49.20
2019-04-22T03:24:08.850Z,49.20
2019-04-22T03:26:27.563Z,49.30
2019-04-22T03:41:48.195Z,49.60
2019-04-22T03:46:41.883Z,49.50
2019-04-22T03:49:23.628Z,49.70
2019-04-22T03:51:49.860Z,49.80
2019-04-22T03:59:22.483Z,50.60
2019-04-22T04:01:44.200Z,50.10
2019-04-22T04:04:18.667Z,50.10
2019-04-22T04:06:51.797Z,50.10
2019-04-22T04:09:18.439Z,50.30
2019-04-22T04:11:53.962Z,50.30
2019-04-22T04:14:18.220Z,50.30
2019-04-22T04:16:49.983Z,50.30
2019-04-22T04:19:13.813Z,51.00
2019-04-22T04:24:32.921Z,50.40
2019-04-22T04:29:36.131Z,50.30
2019-04-22T04:34:28.508Z,50.40
2019-04-22T04:37:00.017Z,50.40
2019-04-22T04:42:05.022Z,50.40
2019-04-22T04:49:48.004Z,50.50
2019-04-22T04:54:35.511Z,50.50
2019-04-22T04:56:51.483Z,50.60
2019-04-22T04:59:57.785Z,50.80
2019-04-22T05:01:56.057Z,50.90
2019-04-22T05:04:37.121Z,50.80
2019-04-22T05:07:00.089Z,50.90
2019-04-22T05:09:19.657Z,50.90
2019-04-22T05:12:03.441Z,51.00
2019-04-22T05:16:54.323Z,50.90
2019-04-22T05:19:33.149Z,51.00
2019-04-22T05:22:09.115Z,51.20
2019-04-22T05:24:31.382Z,51.20
2019-04-22T05:27:05.786Z,51.30
2019-04-22T05:29:44.560Z,51.40
2019-04-22T05:32:01.581Z,51.50
2019-04-22T05:34:37.375Z,51.40
2019-04-22T05:39:29.110Z,51.20
2019-04-22T05:44:41.248Z,51.20
2019-04-22T05:47:08.520Z,51.20
2019-04-22T05:49:36.887Z,51.20
2019-04-22T05:52:11.142Z,51.20
2019-04-22T05:54:53.235Z,51.20
2019-04-22T05:57:18.102Z,51.20
2019-04-22T05:59:48.773Z,51.30
2019-04-22T06:02:25.255Z,51.30
2019-04-22T06:04:51.794Z,51.30
2019-04-22T06:07:24.101Z,51.30
2019-04-22T06:09:52.976Z,51.20
2019-04-22T06:12:18.546Z,51.10
2019-04-22T06:14:53.815Z,51.10
2019-04-22T06:17:24.882Z,51.10
2019-04-22T06:20:00.621Z,51.00
2019-04-22T06:22:41.753Z,50.90
2019-04-22T06:25:01.127Z,50.70
2019-04-22T06:27:30.715Z,50.40
2019-04-22T06:29:56.555Z,50.20
2019-04-22T06:32:40.168Z,49.40
2019-04-22T06:35:02.955Z,49.20
2019-04-22T06:37:59.533Z,49.20
2019-04-22T06:39:58.807Z,49.00
2019-04-22T06:42:39.692Z,48.70
2019-04-22T06:45:07.685Z,49.20
2019-04-22T06:47:52.726Z,48.60
2019-04-22T06:50:09.478Z,48.40
2019-04-22T06:52:35.233Z,48.40
2019-04-22T06:55:09.695Z,48.60
2019-04-22T06:57:37.068Z,48.50
2019-04-22T07:00:10.600Z,48.40
2019-04-22T07:02:45.146Z,48.20
2019-04-22T07:05:07.792Z,48.20
2019-04-22T07:07:38.672Z,48.10
2019-04-22T07:10:20.490Z,48.20
2019-04-22T07:12:34.730Z,48.20
2019-04-22T07:15:11.120Z,48.20
2019-04-22T07:17:45.467Z,48.10
2019-04-22T07:20:10.749Z,48.20
2019-04-22T07:22:41.812Z,48.30
2019-04-22T07:25:10.526Z,47.70
2019-04-22T07:27:42.642Z,47.30
2019-04-22T07:30:17.288Z,47.10
2019-04-22T07:32:59.186Z,47.10
2019-04-22T07:35:19.287Z,47.20
2019-04-22T07:37:43.459Z,47.30
2019-04-22T07:40:09.828Z,47.30
2019-04-22T07:42:41.731Z,47.30
2019-04-22T07:45:25.396Z,47.40
2019-04-22T07:47:44.379Z,47.60
2019-04-22T07:50:25.412Z,47.40
2019-04-22T07:52:46.015Z,47.30
2019-04-22T07:55:11.896Z,47.40
2019-04-22T07:57:44.482Z,47.50
2019-04-22T08:00:23.066Z,47.20
2019-04-22T08:02:52.012Z,47.10
2019-04-22T08:05:24.779Z,47.30
2019-04-22T08:08:05.140Z,47.40
2019-04-22T08:12:55.439Z,47.00
2019-04-22T08:15:27.751Z,46.90
2019-04-22T08:20:33.873Z,47.00
2019-04-22T08:23:09.382Z,46.80
2019-04-22T08:25:38.938Z,46.70
2019-04-22T08:28:10.610Z,46.90
2019-04-22T08:30:40.877Z,47.00
2019-04-22T08:33:09.863Z,46.80
2019-04-22T08:38:11.435Z,46.90
2019-04-22T08:40:50.046Z,46.40
2019-04-22T08:43:20.835Z,46.50
2019-04-22T08:45:51.175Z,45.80
2019-04-22T08:48:18.572Z,45.30
2019-04-22T08:50:44.290Z,45.20
2019-04-22T08:53:20.044Z,44.90
2019-04-22T08:55:57.886Z,45.20
2019-04-22T08:58:34.266Z,44.70
2019-04-22T09:01:15.961Z,44.30
2019-04-22T09:03:15.943Z,44.70
2019-04-22T09:08:32.352Z,44.50
2019-04-22T09:10:57.093Z,44.40
2019-04-22T09:13:30.843Z,44.40
2019-04-22T09:15:55.462Z,43.70
2019-04-22T09:18:28.447Z,43.60
2019-04-22T09:21:07.069Z,43.80
2019-04-22T09:23:33.964Z,43.60
2019-04-22T09:26:03.846Z,43.40
2019-04-22T09:28:37.820Z,43.60
2019-04-22T09:33:38.372Z,43.30
2019-04-22T09:36:16.455Z,43.80
2019-04-22T09:41:15.358Z,43.40
2019-04-22T09:46:16.640Z,43.20
2019-04-22T09:51:11.609Z,42.50
2019-04-22T09:53:54.829Z,42.60
2019-04-22T09:56:18.105Z,42.80
2019-04-22T09:58:53.623Z,42.80
2019-04-22T10:01:26.169Z,43.20
2019-04-22T10:03:51.096Z,42.30
2019-04-22T10:09:01.986Z,41.80
2019-04-22T10:11:26.968Z,41.80
2019-04-22T10:13:53.837Z,41.80
2019-04-22T10:16:27.108Z,41.60
2019-04-22T10:18:52.078Z,41.80
2019-04-22T10:21:26.849Z,41.80
2019-04-22T10:23:50.691Z,41.60
2019-04-22T10:26:30.079Z,41.80
2019-04-22T10:29:01.144Z,42.00
2019-04-22T10:31:34.484Z,42.10
2019-04-22T10:33:49.631Z,41.80
2019-04-22T10:36:07.893Z,42.10
2019-04-22T10:38:36.807Z,41.90
2019-04-22T10:41:08.293Z,42.00
2019-04-22T10:43:37.146Z,41.60
2019-04-22T10:46:06.222Z,41.50
2019-04-22T10:48:34.866Z,41.70
2019-04-22T10:51:04.607Z,42.50
2019-04-22T10:53:33.512Z,43.20
2019-04-22T10:56:05.243Z,43.90
2019-04-22T10:58:34.958Z,44.20
2019-04-22T11:01:15.639Z,44.20
2019-04-22T11:03:53.330Z,44.40
2019-04-22T11:06:23.167Z,43.80
2019-04-22T11:08:57.807Z,44.00
2019-04-22T11:11:34.782Z,44.00
2019-04-22T11:13:56.293Z,44.00
2019-04-22T11:16:25.766Z,44.20
2019-04-22T11:18:55.825Z,44.60
2019-04-22T11:21:25.417Z,44.80
2019-04-22T11:23:54.626Z,44.80
2019-04-22T11:26:32.490Z,44.80
2019-04-22T11:29:03.683Z,44.80
2019-04-22T11:31:44.366Z,44.80
2019-04-22T11:34:15.137Z,44.80
2019-04-22T11:36:45.098Z,44.00
2019-04-22T11:39:21.680Z,44.00
2019-04-22T11:41:51.813Z,44.10
2019-04-22T11:44:21.363Z,44.10
2019-04-22T14:39:41.960Z,38.60
2019-04-22T14:42:29.182Z,38.80
2019-04-22T14:45:26.095Z,39.00
2019-04-22T14:47:32.713Z,39.00
2019-04-22T14:50:07.682Z,38.80
2019-04-22T14:52:36.048Z,39.60
2019-04-22T14:54:55.464Z,39.30
2019-04-22T14:57:13.037Z,39.40
2019-04-22T14:59:41.971Z,39.30
2019-04-22T15:02:11.802Z,39.20
2019-04-22T15:04:42.875Z,38.80
2019-04-22T15:07:10.793Z,38.70
2019-04-22T15:09:39.880Z,38.80
2019-04-22T15:12:17.525Z,38.80
2019-04-22T15:14:39.568Z,39.60
2019-04-22T15:17:24.928Z,38.70
2019-04-22T15:20:01.603Z,38.60
2019-04-22T15:22:30.798Z,38.60
2019-04-22T15:25:00.651Z,38.70
2019-04-22T15:27:31.039Z,38.70
2019-04-22T15:29:59.649Z,38.60
2019-04-22T15:32:29.511Z,38.80
2019-04-22T15:34:59.587Z,39.10
2019-04-22T15:37:28.377Z,39.40
2019-04-22T15:39:58.464Z,39.50
2019-04-22T15:42:30.727Z,40.60
2019-04-22T15:44:58.012Z,40.10
2019-04-22T15:47:27.125Z,40.30
2019-04-22T15:49:56.171Z,40.50
2019-04-22T15:52:32.064Z,40.40
2019-04-22T15:54:56.236Z,40.40
2019-04-22T15:57:24.930Z,40.30
2019-04-22T16:00:06.811Z,40.10
2019-04-22T16:02:23.749Z,40.00
2019-04-22T16:04:52.781Z,40.00
2019-04-22T16:07:24.820Z,40.00
2019-04-22T16:09:51.975Z,40.00
2019-04-22T16:12:28.696Z,40.10
2019-04-22T16:14:55.003Z,40.20
2019-04-22T16:17:22.506Z,40.00
2019-04-22T16:19:51.114Z,39.90
2019-04-22T16:22:23.107Z,39.80
2019-04-22T16:24:56.149Z,39.70
2019-04-22T16:27:26.646Z,39.60
2019-04-22T16:29:55.319Z,39.50
2019-04-22T16:32:25.442Z,39.10
2019-04-22T16:34:54.647Z,39.20
2019-04-22T16:37:24.926Z,39.10
2019-04-22T16:39:54.739Z,38.80
2019-04-22T16:42:30.216Z,38.10
2019-04-22T16:44:55.364Z,37.90
2019-04-22T16:47:24.155Z,38.10
2019-04-22T16:49:52.709Z,38.30
2019-04-22T16:52:21.880Z,38.10
2019-04-22T16:54:50.763Z,38.00
2019-04-22T16:57:19.858Z,38.10
2019-04-22T16:59:48.948Z,38.10
2019-04-22T17:02:35.225Z,38.30
2019-04-22T17:05:07.317Z,38.40
2019-04-22T17:07:36.194Z,38.50
2019-04-22T17:10:08.042Z,38.50
2019-04-22T17:12:46.817Z,38.50
2019-04-22T17:15:12.200Z,38.60
2019-04-22T17:17:40.949Z,38.60
2019-04-22T17:29:50.681Z,38.30
2019-04-22T17:32:21.551Z,38.30
2019-04-22T17:34:49.784Z,38.30
2019-04-22T17:37:24.156Z,38.30
2019-04-22T17:40:05.747Z,38.10
2019-04-22T17:42:39.488Z,38.40
2019-04-22T17:45:22.042Z,38.40
2019-04-22T17:48:12.691Z,38.50
2019-04-22T17:50:48.562Z,38.50
2019-04-22T17:53:23.013Z,39.00
2019-04-22T17:55:49.468Z,39.60
2019-04-22T17:58:24.050Z,40.10
2019-04-22T18:00:41.878Z,40.30
2019-04-22T18:03:07.084Z,40.40
2019-04-22T18:05:34.657Z,40.30
2019-04-22T18:08:20.467Z,40.50
2019-04-22T18:10:44.093Z,40.50
2019-04-22T18:15:48.397Z,40.70
2019-04-22T18:18:21.702Z,40.70
2019-04-22T18:20:44.903Z,40.90
2019-04-22T18:23:09.107Z,41.00
2019-04-22T18:25:52.427Z,41.20
2019-04-22T18:28:25.161Z,41.40
2019-04-22T18:30:42.303Z,41.50
2019-04-22T18:33:21.138Z,41.40
2019-04-22T18:35:51.496Z,41.50
2019-04-22T18:38:38.375Z,41.80
2019-04-22T18:40:53.586Z,41.70
2019-04-22T18:43:26.262Z,41.70
2019-04-22T18:46:12.691Z,41.70
2019-04-22T18:48:12.457Z,41.40
2019-04-22T18:51:04.850Z,41.20
2019-04-22T18:53:44.799Z,41.30
2019-04-22T18:56:07.912Z,41.30
2019-04-22T18:58:32.214Z,41.50
2019-04-22T19:00:48.431Z,41.10
2019-04-22T19:03:22.653Z,41.00
2019-04-22T19:06:20.439Z,41.00
2019-04-22T19:08:36.803Z,41.00
2019-04-22T19:11:12.708Z,40.80
2019-04-22T19:13:58.886Z,41.00
2019-04-22T19:19:10.008Z,40.90
2019-04-22T19:21:12.086Z,40.50
2019-04-22T19:23:41.572Z,40.10
2019-04-22T19:26:11.626Z,40.50
2019-04-22T19:28:48.301Z,40.10
2019-04-22T19:33:49.280Z,40.40
2019-04-22T19:36:14.749Z,40.40
2019-04-22T19:38:31.165Z,40.50
2019-04-22T19:41:22.148Z,40.50
2019-04-22T19:43:46.877Z,40.40
2019-04-22T19:46:16.440Z,40.60
2019-04-22T19:48:50.057Z,40.50
2019-04-22T19:51:44.058Z,40.70
2019-04-22T19:53:47.036Z,41.00
2019-04-22T19:56:11.702Z,41.30
2019-04-22T19:58:44.399Z,41.20
2019-04-22T20:01:35.201Z,41.20
2019-04-22T20:06:47.594Z,41.30
2019-04-22T20:09:24.898Z,41.40
2019-04-22T20:11:51.748Z,41.70
2019-04-22T20:14:21.794Z,41.80
2019-04-22T20:16:46.599Z,41.90
2019-04-22T20:19:33.869Z,42.10
2019-04-22T20:21:51.798Z,42.50
2019-04-22T20:24:12.014Z,42.80
2019-04-22T20:26:59.479Z,43.00
2019-04-22T20:29:30.713Z,43.10
2019-04-22T20:31:54.083Z,43.30
2019-04-22T20:34:24.025Z,43.40
2019-04-22T20:39:33.191Z,44.00
2019-04-22T20:42:14.825Z,44.30
2019-04-22T20:44:37.959Z,44.60
2019-04-22T20:46:56.244Z,44.90
2019-04-22T20:49:36.667Z,45.20
2019-04-22T20:52:08.639Z,45.50
2019-04-22T20:54:39.115Z,45.80
2019-04-22T20:56:59.715Z,46.10
2019-04-22T20:59:33.222Z,46.30
2019-04-22T21:02:02.052Z,46.50
2019-04-22T21:04:24.832Z,46.60
2019-04-22T21:07:01.900Z,46.70
2019-04-22T21:09:33.323Z,46.70
2019-04-22T21:12:02.230Z,46.80
2019-04-22T21:14:36.416Z,46.80
2019-04-22T21:17:06.670Z,46.80
2019-04-22T21:19:41.388Z,47.00
2019-04-22T21:22:10.960Z,46.90
2019-04-22T21:24:34.468Z,46.90
2019-04-22T21:27:14.126Z,47.00
2019-04-22T21:29:33.693Z,46.90
2019-04-22T21:32:07.926Z,47.00
2019-04-22T21:34:47.605Z,47.10
2019-04-22T21:37:14.367Z,47.20
2019-04-22T21:39:35.359Z,47.30
2019-04-22T21:42:11.916Z,47.30
2019-04-22T21:44:42.700Z,47.20
2019-04-22T21:47:14.510Z,47.30
2019-04-22T21:49:42.767Z,47.40
2019-04-22T21:52:13.520Z,47.50
2019-04-22T21:54:46.716Z,47.50
2019-04-22T21:57:47.822Z,47.70
2019-04-22T21:59:57.742Z,47.80
2019-04-22T22:02:28.387Z,48.10
2019-04-22T22:04:52.664Z,48.20
2019-04-22T22:07:13.912Z,48.30
2019-04-22T22:09:55.607Z,48.40
2019-04-22T22:12:26.340Z,48.50
2019-04-22T22:14:55.857Z,48.70
2019-04-22T22:17:29.606Z,48.80
2019-04-22T22:19:55.607Z,48.80
2019-04-22T22:25:04.316Z,48.90
2019-04-22T22:27:30.175Z,48.90
2019-04-22T22:30:19.239Z,49.10
2019-04-22T22:32:32.142Z,49.10
2019-04-22T22:35:03.147Z,49.10
2019-04-22T22:37:22.162Z,48.70
2019-04-22T22:39:51.355Z,49.30
2019-04-22T22:42:21.425Z,49.60
2019-04-22T22:44:47.751Z,49.70
2019-04-22T22:47:35.826Z,49.90
2019-04-22T22:50:04.558Z,49.80
2019-04-22T22:52:50.338Z,49.90
2019-04-22T22:55:09.117Z,49.90
2019-04-22T22:57:38.297Z,50.60
2019-04-22T23:00:03.889Z,49.90
2019-04-22T23:02:36.813Z,50.00
2019-04-22T23:05:10.886Z,50.20
2019-04-22T23:07:42.763Z,50.30
2019-04-22T23:10:09.663Z,50.40
2019-04-22T23:12:55.652Z,50.50
2019-04-22T23:15:06.176Z,50.60
2019-04-22T23:17:24.137Z,50.60
2019-04-22T23:19:52.092Z,50.70
2019-04-22T23:22:30.306Z,50.80
2019-04-22T23:25:13.901Z,50.80
2019-04-22T23:27:40.395Z,50.90
2019-04-22T23:30:19.449Z,50.90
2019-04-22T23:32:58.005Z,50.90
2019-04-22T23:35:29.324Z,50.90
2019-04-22T23:37:57.272Z,50.90
2019-04-22T23:40:37.183Z,50.90
2019-04-22T23:43:09.437Z,50.90
2019-04-22T23:45:35.561Z,51.60
2019-04-22T23:48:02.257Z,51.00
2019-04-22T23:50:39.444Z,51.10
2019-04-22T23:53:08.691Z,51.20
2019-04-22T23:55:46.380Z,51.20
2019-04-22T23:58:11.929Z,51.40
